sensor_id;sensor_type;location;lat;lon;timestamp;noise_LAeq;noise_LA_min;noise_LA_max;noise_LA01;noise_LA95
66450;Laerm;56829;52.274;4.770;2023-01-26T00:00:08;41.76;38.17;58.98;;
66450;Laerm;56829;52.274;4.770;2023-01-26T00:00:18;41.72;37.97;57.24;;
66450;Laerm;56829;52.274;4.770;2023-01-26T00:00:28;40.18;38.34;44.72;;
66450;Laerm;56829;52.274;4.770;2023-01-26T00:00:40;40.32;38.25;46.78;;
66450;Laerm;56829;52.274;4.770;2023-01-26T00:00:51;40.92;38.39;48.80;;
66450;Laerm;56829;52.274;4.770;2023-01-26T00:01:08;54.83;41.05;75.57;;
66450;Laerm;56829;52.274;4.770;2023-01-26T00:01:21;49.40;39.21;60.47;;
66450;Laerm;56829;52.274;4.770;2023-01-26T00:01:32;40.94;38.75;46.67;;
66450;Laerm;56829;52.274;4.770;2023-01-26T00:01:42;41.07;38.78;46.23;;
66450;Laerm;56829;52.274;4.770;2023-01-26T00:01:53;41.11;38.94;47.65;;
66450;Laerm;56829;52.274;4.770;2023-01-26T00:02:04;41.14;38.68;55.51;;
66450;Laerm;56829;52.274;4.770;2023-01-26T00:02:14;41.81;39.69;45.71;;
66450;Laerm;56829;52.274;4.770;2023-01-26T00:02:24;49.22;41.23;57.82;;
66450;Laerm;56829;52.274;4.770;2023-01-26T00:02:34;57.60;43.49;67.20;;
66450;Laerm;56829;52.274;4.770;2023-01-26T00:02:45;42.16;39.99;44.31;;
66450;Laerm;56829;52.274;4.770;2023-01-26T00:02:55;43.86;38.59;64.67;;
66450;Laerm;56829;52.274;4.770;2023-01-26T00:03:05;40.58;37.76;45.78;;
66450;Laerm;56829;52.274;4.770;2023-01-26T00:03:15;40.87;38.36;45.56;;
66450;Laerm;56829;52.274;4.770;2023-01-26T00:03:26;40.53;38.54;49.41;;
66450;Laerm;56829;52.274;4.770;2023-01-26T00:03:36;40.40;38.42;45.06;;
66450;Laerm;56829;52.274;4.770;2023-01-26T00:03:46;40.60;37.85;48.98;;
66450;Laerm;56829;52.274;4.770;2023-01-26T00:03:56;40.72;38.41;54.77;;
66450;Laerm;56829;52.274;4.770;2023-01-26T00:04:07;40.96;38.61;48.78;;
66450;Laerm;56829;52.274;4.770;2023-01-26T00:04:17;49.22;39.57;73.01;;
66450;Laerm;56829;52.274;4.770;2023-01-26T00:04:30;41.07;38.74;48.42;;
66450;Laerm;56829;52.274;4.770;2023-01-26T00:04:40;41.00;38.46;50.44;;
66450;Laerm;56829;52.274;4.770;2023-01-26T00:04:50;40.29;37.65;49.50;;
66450;Laerm;56829;52.274;4.770;2023-01-26T00:05:00;40.17;38.08;43.40;;
66450;Laerm;56829;52.274;4.770;2023-01-26T00:05:11;40.28;37.68;47.32;;
66450;Laerm;56829;52.274;4.770;2023-01-26T00:05:21;40.19;37.78;50.87;;
66450;Laerm;56829;52.274;4.770;2023-01-26T00:05:31;39.93;37.51;48.33;;
66450;Laerm;56829;52.274;4.770;2023-01-26T00:05:41;40.77;37.77;55.97;;
66450;Laerm;56829;52.274;4.770;2023-01-26T00:05:52;42.31;37.53;61.70;;
66450;Laerm;56829;52.274;4.770;2023-01-26T00:06:03;40.10;37.54;46.94;;
66450;Laerm;56829;52.274;4.770;2023-01-26T00:06:14;41.00;38.52;51.76;;
66450;Laerm;56829;52.274;4.770;2023-01-26T00:06:25;44.02;38.35;52.40;;
66450;Laerm;56829;52.274;4.770;2023-01-26T00:06:35;55.41;43.25;64.34;;
66450;Laerm;56829;52.274;4.770;2023-01-26T00:06:45;42.65;39.50;47.35;;
66450;Laerm;56829;52.274;4.770;2023-01-26T00:06:55;41.37;39.01;56.23;;
66450;Laerm;56829;52.274;4.770;2023-01-26T00:07:05;40.47;38.62;46.00;;
66450;Laerm;56829;52.274;4.770;2023-01-26T00:07:15;48.30;38.12;71.88;;
66450;Laerm;56829;52.274;4.770;2023-01-26T00:07:27;41.20;39.05;47.11;;
66450;Laerm;56829;52.274;4.770;2023-01-26T00:07:38;41.18;38.57;45.51;;
66450;Laerm;56829;52.274;4.770;2023-01-26T00:07:54;40.45;37.73;47.03;;
66450;Laerm;56829;52.274;4.770;2023-01-26T00:08:04;40.82;38.45;50.29;;
66450;Laerm;56829;52.274;4.770;2023-01-26T00:08:15;40.58;37.79;55.41;;
66450;Laerm;56829;52.274;4.770;2023-01-26T00:08:25;43.31;37.96;65.21;;
66450;Laerm;56829;52.274;4.770;2023-01-26T00:08:36;40.05;37.22;49.01;;
66450;Laerm;56829;52.274;4.770;2023-01-26T00:08:47;39.91;37.71;51.02;;
66450;Laerm;56829;52.274;4.770;2023-01-26T00:08:58;41.12;37.29;59.39;;
66450;Laerm;56829;52.274;4.770;2023-01-26T00:09:10;40.31;37.61;52.33;;
66450;Laerm;56829;52.274;4.770;2023-01-26T00:09:22;40.21;37.39;45.60;;
66450;Laerm;56829;52.274;4.770;2023-01-26T00:09:32;40.20;37.86;48.62;;
66450;Laerm;56829;52.274;4.770;2023-01-26T00:09:42;40.85;37.75;54.29;;
66450;Laerm;56829;52.274;4.770;2023-01-26T00:09:52;42.84;37.93;62.38;;
66450;Laerm;56829;52.274;4.770;2023-01-26T00:10:04;39.96;38.01;42.25;;
66450;Laerm;56829;52.274;4.770;2023-01-26T00:10:14;39.63;37.21;44.38;;
66450;Laerm;56829;52.274;4.770;2023-01-26T00:10:24;39.15;36.99;48.02;;
66450;Laerm;56829;52.274;4.770;2023-01-26T00:10:35;39.57;36.31;47.92;;
66450;Laerm;56829;52.274;4.770;2023-01-26T00:10:46;40.10;36.88;56.82;;
66450;Laerm;56829;52.274;4.770;2023-01-26T00:11:01;39.71;36.46;51.26;;
66450;Laerm;56829;52.274;4.770;2023-01-26T00:11:12;44.55;37.97;67.11;;
66450;Laerm;56829;52.274;4.770;2023-01-26T00:11:24;40.95;37.91;49.23;;
66450;Laerm;56829;52.274;4.770;2023-01-26T00:11:38;39.93;37.43;46.55;;
66450;Laerm;56829;52.274;4.770;2023-01-26T00:11:48;39.74;36.99;43.92;;
66450;Laerm;56829;52.274;4.770;2023-01-26T00:11:58;39.76;37.09;45.59;;
66450;Laerm;56829;52.274;4.770;2023-01-26T00:12:09;40.15;36.88;49.33;;
66450;Laerm;56829;52.274;4.770;2023-01-26T00:12:19;40.98;38.27;54.94;;
66450;Laerm;56829;52.274;4.770;2023-01-26T00:12:29;41.05;38.19;44.61;;
66450;Laerm;56829;52.274;4.770;2023-01-26T00:12:39;42.34;38.97;49.71;;
66450;Laerm;56829;52.274;4.770;2023-01-26T00:12:49;42.80;38.30;63.96;;
66450;Laerm;56829;52.274;4.770;2023-01-26T00:12:59;42.09;37.83;59.61;;
66450;Laerm;56829;52.274;4.770;2023-01-26T00:13:10;41.13;37.33;59.79;;
66450;Laerm;56829;52.274;4.770;2023-01-26T00:13:20;40.04;36.95;45.18;;
66450;Laerm;56829;52.274;4.770;2023-01-26T00:13:31;39.84;37.37;50.76;;
66450;Laerm;56829;52.274;4.770;2023-01-26T00:13:42;40.47;38.03;44.59;;
66450;Laerm;56829;52.274;4.770;2023-01-26T00:13:53;41.44;38.83;47.77;;
66450;Laerm;56829;52.274;4.770;2023-01-26T00:14:03;41.10;38.28;53.72;;
66450;Laerm;56829;52.274;4.770;2023-01-26T00:14:13;41.35;38.07;53.15;;
66450;Laerm;56829;52.274;4.770;2023-01-26T00:14:23;41.45;38.40;50.50;;
66450;Laerm;56829;52.274;4.770;2023-01-26T00:14:33;42.08;39.05;45.31;;
66450;Laerm;56829;52.274;4.770;2023-01-26T00:14:58;40.84;37.46;51.62;;
66450;Laerm;56829;52.274;4.770;2023-01-26T00:15:08;40.35;37.73;53.30;;
66450;Laerm;56829;52.274;4.770;2023-01-26T00:15:19;40.09;37.43;50.21;;
66450;Laerm;56829;52.274;4.770;2023-01-26T00:15:32;39.94;37.20;49.41;;
66450;Laerm;56829;52.274;4.770;2023-01-26T00:15:43;38.94;36.51;46.01;;
66450;Laerm;56829;52.274;4.770;2023-01-26T00:15:53;40.19;37.60;48.09;;
66450;Laerm;56829;52.274;4.770;2023-01-26T00:16:03;39.91;37.38;44.09;;
66450;Laerm;56829;52.274;4.770;2023-01-26T00:16:14;40.12;37.30;54.47;;
66450;Laerm;56829;52.274;4.770;2023-01-26T00:16:24;40.52;37.99;50.83;;
66450;Laerm;56829;52.274;4.770;2023-01-26T00:16:35;41.03;36.90;61.68;;
66450;Laerm;56829;52.274;4.770;2023-01-26T00:16:45;38.88;36.38;45.39;;
66450;Laerm;56829;52.274;4.770;2023-01-26T00:16:55;38.69;36.43;46.38;;
66450;Laerm;56829;52.274;4.770;2023-01-26T00:17:05;38.66;36.34;43.53;;
66450;Laerm;56829;52.274;4.770;2023-01-26T00:17:16;39.42;37.12;49.26;;
66450;Laerm;56829;52.274;4.770;2023-01-26T00:17:34;40.27;36.91;49.49;;
66450;Laerm;56829;52.274;4.770;2023-01-26T00:17:47;40.89;37.51;47.47;;
66450;Laerm;56829;52.274;4.770;2023-01-26T00:17:57;40.75;38.03;45.64;;
66450;Laerm;56829;52.274;4.770;2023-01-26T00:18:08;40.00;37.69;47.42;;
66450;Laerm;56829;52.274;4.770;2023-01-26T00:18:18;39.56;37.27;45.81;;
66450;Laerm;56829;52.274;4.770;2023-01-26T00:18:28;39.57;37.00;44.31;;
66450;Laerm;56829;52.274;4.770;2023-01-26T00:18:39;39.72;37.57;43.51;;
66450;Laerm;56829;52.274;4.770;2023-01-26T00:18:53;40.64;38.40;47.51;;
66450;Laerm;56829;52.274;4.770;2023-01-26T00:19:03;41.75;38.19;57.79;;
66450;Laerm;56829;52.274;4.770;2023-01-26T00:19:13;40.84;38.16;56.43;;
66450;Laerm;56829;52.274;4.770;2023-01-26T00:19:23;40.35;37.56;46.43;;
66450;Laerm;56829;52.274;4.770;2023-01-26T00:19:33;40.18;38.21;44.87;;
66450;Laerm;56829;52.274;4.770;2023-01-26T00:19:44;40.63;38.31;45.74;;
66450;Laerm;56829;52.274;4.770;2023-01-26T00:19:55;40.39;37.93;45.66;;
66450;Laerm;56829;52.274;4.770;2023-01-26T00:20:05;40.42;38.34;48.97;;
66450;Laerm;56829;52.274;4.770;2023-01-26T00:20:16;40.85;38.02;48.17;;
66450;Laerm;56829;52.274;4.770;2023-01-26T00:20:26;40.10;37.72;43.85;;
66450;Laerm;56829;52.274;4.770;2023-01-26T00:20:37;40.29;37.59;50.24;;
66450;Laerm;56829;52.274;4.770;2023-01-26T00:20:47;40.94;38.37;57.48;;
66450;Laerm;56829;52.274;4.770;2023-01-26T00:21:00;42.81;37.88;64.23;;
66450;Laerm;56829;52.274;4.770;2023-01-26T00:21:12;40.63;37.44;47.95;;
66450;Laerm;56829;52.274;4.770;2023-01-26T00:21:22;40.99;38.91;44.86;;
66450;Laerm;56829;52.274;4.770;2023-01-26T00:21:33;42.78;38.99;57.85;;
66450;Laerm;56829;52.274;4.770;2023-01-26T00:21:43;41.71;38.28;54.99;;
66450;Laerm;56829;52.274;4.770;2023-01-26T00:21:53;40.69;37.80;49.62;;
66450;Laerm;56829;52.274;4.770;2023-01-26T00:22:03;40.41;37.84;46.94;;
66450;Laerm;56829;52.274;4.770;2023-01-26T00:22:13;39.83;37.73;49.93;;
66450;Laerm;56829;52.274;4.770;2023-01-26T00:22:25;42.82;38.03;63.86;;
66450;Laerm;56829;52.274;4.770;2023-01-26T00:22:35;54.01;39.94;65.63;;
66450;Laerm;56829;52.274;4.770;2023-01-26T00:22:45;55.29;44.90;64.43;;
66450;Laerm;56829;52.274;4.770;2023-01-26T00:22:55;41.69;39.30;46.67;;
66450;Laerm;56829;52.274;4.770;2023-01-26T00:23:06;40.88;38.88;49.48;;
66450;Laerm;56829;52.274;4.770;2023-01-26T00:23:16;40.94;38.14;47.62;;
66450;Laerm;56829;52.274;4.770;2023-01-26T00:23:26;40.61;38.43;48.24;;
66450;Laerm;56829;52.274;4.770;2023-01-26T00:23:37;40.29;37.93;46.59;;
66450;Laerm;56829;52.274;4.770;2023-01-26T00:23:48;39.96;36.66;51.75;;
66450;Laerm;56829;52.274;4.770;2023-01-26T00:23:58;39.80;37.68;45.80;;
66450;Laerm;56829;52.274;4.770;2023-01-26T00:24:09;39.73;37.00;46.68;;
66450;Laerm;56829;52.274;4.770;2023-01-26T00:24:19;40.41;37.55;53.02;;
66450;Laerm;56829;52.274;4.770;2023-01-26T00:24:29;40.38;37.86;47.11;;
66450;Laerm;56829;52.274;4.770;2023-01-26T00:24:39;39.82;37.68;44.32;;
66450;Laerm;56829;52.274;4.770;2023-01-26T00:24:49;42.53;36.82;61.37;;
66450;Laerm;56829;52.274;4.770;2023-01-26T00:25:00;39.59;36.59;48.98;;
66450;Laerm;56829;52.274;4.770;2023-01-26T00:25:10;39.28;36.71;51.76;;
66450;Laerm;56829;52.274;4.770;2023-01-26T00:25:20;38.91;36.12;45.55;;
66450;Laerm;56829;52.274;4.770;2023-01-26T00:25:30;45.59;36.84;68.98;;
66450;Laerm;56829;52.274;4.770;2023-01-26T00:25:41;40.02;37.80;46.88;;
66450;Laerm;56829;52.274;4.770;2023-01-26T00:25:51;39.32;37.01;44.29;;
66450;Laerm;56829;52.274;4.770;2023-01-26T00:26:01;39.46;37.13;41.90;;
66450;Laerm;56829;52.274;4.770;2023-01-26T00:26:15;41.17;37.10;61.63;;
66450;Laerm;56829;52.274;4.770;2023-01-26T00:26:26;39.02;36.72;47.46;;
66450;Laerm;56829;52.274;4.770;2023-01-26T00:26:37;38.62;36.50;43.74;;
66450;Laerm;56829;52.274;4.770;2023-01-26T00:26:47;38.77;36.72;47.44;;
66450;Laerm;56829;52.274;4.770;2023-01-26T00:26:57;40.10;37.23;57.09;;
66450;Laerm;56829;52.274;4.770;2023-01-26T00:27:08;40.29;37.57;48.66;;
66450;Laerm;56829;52.274;4.770;2023-01-26T00:27:18;40.10;37.17;52.98;;
66450;Laerm;56829;52.274;4.770;2023-01-26T00:27:28;39.49;36.63;43.89;;
66450;Laerm;56829;52.274;4.770;2023-01-26T00:27:38;45.01;37.34;68.17;;
66450;Laerm;56829;52.274;4.770;2023-01-26T00:27:48;40.86;37.13;59.52;;
66450;Laerm;56829;52.274;4.770;2023-01-26T00:27:58;40.57;37.83;54.09;;
66450;Laerm;56829;52.274;4.770;2023-01-26T00:28:09;40.17;37.72;52.01;;
66450;Laerm;56829;52.274;4.770;2023-01-26T00:28:19;39.58;37.22;50.11;;
66450;Laerm;56829;52.274;4.770;2023-01-26T00:28:29;38.68;36.44;47.42;;
66450;Laerm;56829;52.274;4.770;2023-01-26T00:28:39;39.61;36.90;53.76;;
66450;Laerm;56829;52.274;4.770;2023-01-26T00:28:50;46.69;36.34;70.56;;
66450;Laerm;56829;52.274;4.770;2023-01-26T00:29:00;39.52;37.22;43.84;;
66450;Laerm;56829;52.274;4.770;2023-01-26T00:29:10;39.77;37.60;45.11;;
66450;Laerm;56829;52.274;4.770;2023-01-26T00:29:20;40.63;37.29;56.00;;
66450;Laerm;56829;52.274;4.770;2023-01-26T00:29:31;41.43;37.85;59.47;;
66450;Laerm;56829;52.274;4.770;2023-01-26T00:29:41;40.86;38.46;53.78;;
66450;Laerm;56829;52.274;4.770;2023-01-26T00:29:51;41.24;37.58;56.80;;
66450;Laerm;56829;52.274;4.770;2023-01-26T00:30:01;40.27;37.81;45.02;;
66450;Laerm;56829;52.274;4.770;2023-01-26T00:30:12;40.19;37.84;44.47;;
66450;Laerm;56829;52.274;4.770;2023-01-26T00:30:25;40.73;38.05;49.77;;
66450;Laerm;56829;52.274;4.770;2023-01-26T00:30:35;41.72;38.67;47.22;;
66450;Laerm;56829;52.274;4.770;2023-01-26T00:30:45;41.29;38.63;56.79;;
66450;Laerm;56829;52.274;4.770;2023-01-26T00:31:05;41.07;38.73;46.56;;
66450;Laerm;56829;52.274;4.770;2023-01-26T00:31:20;41.53;37.17;61.63;;
66450;Laerm;56829;52.274;4.770;2023-01-26T00:31:30;40.86;37.51;57.09;;
66450;Laerm;56829;52.274;4.770;2023-01-26T00:31:40;40.44;37.84;44.14;;
66450;Laerm;56829;52.274;4.770;2023-01-26T00:31:50;39.73;37.58;45.50;;
66450;Laerm;56829;52.274;4.770;2023-01-26T00:32:00;39.97;37.18;45.09;;
66450;Laerm;56829;52.274;4.770;2023-01-26T00:32:11;39.64;37.33;47.35;;
66450;Laerm;56829;52.274;4.770;2023-01-26T00:32:21;40.10;37.68;47.89;;
66450;Laerm;56829;52.274;4.770;2023-01-26T00:32:33;42.69;37.47;64.18;;
66450;Laerm;56829;52.274;4.770;2023-01-26T00:32:44;40.54;37.12;50.50;;
66450;Laerm;56829;52.274;4.770;2023-01-26T00:32:54;40.10;37.14;52.81;;
66450;Laerm;56829;52.274;4.770;2023-01-26T00:33:06;42.60;37.79;64.66;;
66450;Laerm;56829;52.274;4.770;2023-01-26T00:33:16;40.24;37.76;48.97;;
66450;Laerm;56829;52.274;4.770;2023-01-26T00:33:27;40.62;38.39;43.17;;
66450;Laerm;56829;52.274;4.770;2023-01-26T00:33:37;40.94;38.31;44.28;;
66450;Laerm;56829;52.274;4.770;2023-01-26T00:33:48;40.49;37.84;52.91;;
66450;Laerm;56829;52.274;4.770;2023-01-26T00:33:58;40.85;37.54;54.78;;
66450;Laerm;56829;52.274;4.770;2023-01-26T00:34:08;39.72;37.17;44.41;;
66450;Laerm;56829;52.274;4.770;2023-01-26T00:34:18;39.71;36.86;45.90;;
66450;Laerm;56829;52.274;4.770;2023-01-26T00:34:29;41.28;36.76;60.84;;
66450;Laerm;56829;52.274;4.770;2023-01-26T00:34:39;39.49;36.73;43.86;;
66450;Laerm;56829;52.274;4.770;2023-01-26T00:34:49;39.91;37.33;49.50;;
66450;Laerm;56829;52.274;4.770;2023-01-26T00:34:59;40.10;37.35;45.10;;
66450;Laerm;56829;52.274;4.770;2023-01-26T00:35:09;40.40;37.97;44.92;;
66450;Laerm;56829;52.274;4.770;2023-01-26T00:35:20;40.22;37.25;44.33;;
66450;Laerm;56829;52.274;4.770;2023-01-26T00:35:30;40.11;37.86;45.26;;
66450;Laerm;56829;52.274;4.770;2023-01-26T00:35:40;40.27;37.20;47.48;;
66450;Laerm;56829;52.274;4.770;2023-01-26T00:35:53;40.25;37.03;53.99;;
66450;Laerm;56829;52.274;4.770;2023-01-26T00:36:04;39.09;36.40;47.38;;
66450;Laerm;56829;52.274;4.770;2023-01-26T00:36:14;38.72;36.23;45.33;;
66450;Laerm;56829;52.274;4.770;2023-01-26T00:36:24;38.79;36.27;46.67;;
66450;Laerm;56829;52.274;4.770;2023-01-26T00:36:35;39.92;36.71;57.54;;
66450;Laerm;56829;52.274;4.770;2023-01-26T00:36:46;38.74;35.98;50.45;;
66450;Laerm;56829;52.274;4.770;2023-01-26T00:36:56;38.62;36.27;44.15;;
66450;Laerm;56829;52.274;4.770;2023-01-26T00:37:07;42.87;36.82;65.28;;
66450;Laerm;56829;52.274;4.770;2023-01-26T00:37:17;40.44;37.50;56.80;;
66450;Laerm;56829;52.274;4.770;2023-01-26T00:37:27;39.68;37.31;45.55;;
66450;Laerm;56829;52.274;4.770;2023-01-26T00:37:39;40.48;37.83;52.86;;
66450;Laerm;56829;52.274;4.770;2023-01-26T00:37:50;40.54;37.89;48.07;;
66450;Laerm;56829;52.274;4.770;2023-01-26T00:38:00;39.50;37.19;45.01;;
66450;Laerm;56829;52.274;4.770;2023-01-26T00:38:10;39.66;37.73;46.25;;
66450;Laerm;56829;52.274;4.770;2023-01-26T00:38:21;39.35;37.28;43.73;;
66450;Laerm;56829;52.274;4.770;2023-01-26T00:38:31;39.25;36.40;45.90;;
66450;Laerm;56829;52.274;4.770;2023-01-26T00:38:41;40.15;36.23;59.51;;
66450;Laerm;56829;52.274;4.770;2023-01-26T00:38:52;38.96;35.77;51.00;;
66450;Laerm;56829;52.274;4.770;2023-01-26T00:39:02;39.38;36.37;51.97;;
66450;Laerm;56829;52.274;4.770;2023-01-26T00:39:12;39.93;35.87;58.61;;
66450;Laerm;56829;52.274;4.770;2023-01-26T00:39:22;38.46;35.63;45.96;;
66450;Laerm;56829;52.274;4.770;2023-01-26T00:39:32;39.29;34.75;57.59;;
66450;Laerm;56829;52.274;4.770;2023-01-26T00:39:43;39.38;35.56;55.87;;
66450;Laerm;56829;52.274;4.770;2023-01-26T00:39:53;39.96;36.48;51.04;;
66450;Laerm;56829;52.274;4.770;2023-01-26T00:40:03;39.25;36.26;46.29;;
66450;Laerm;56829;52.274;4.770;2023-01-26T00:40:13;39.39;36.19;47.01;;
66450;Laerm;56829;52.274;4.770;2023-01-26T00:40:24;38.49;35.85;44.51;;
66450;Laerm;56829;52.274;4.770;2023-01-26T00:40:34;39.34;36.76;47.06;;
66450;Laerm;56829;52.274;4.770;2023-01-26T00:40:44;41.13;36.70;44.85;;
66450;Laerm;56829;52.274;4.770;2023-01-26T00:40:54;39.91;36.77;48.78;;
66450;Laerm;56829;52.274;4.770;2023-01-26T00:41:05;38.38;35.80;44.87;;
66450;Laerm;56829;52.274;4.770;2023-01-26T00:41:15;39.53;36.54;50.68;;
66450;Laerm;56829;52.274;4.770;2023-01-26T00:41:44;39.89;36.44;58.70;;
66450;Laerm;56829;52.274;4.770;2023-01-26T00:42:13;39.84;36.44;60.98;;
66450;Laerm;56829;52.274;4.770;2023-01-26T00:42:24;45.18;36.35;69.15;;
66450;Laerm;56829;52.274;4.770;2023-01-26T00:42:35;38.84;36.79;50.13;;
66450;Laerm;56829;52.274;4.770;2023-01-26T00:42:45;38.51;35.64;42.86;;
66450;Laerm;56829;52.274;4.770;2023-01-26T00:42:55;39.88;36.40;57.98;;
66450;Laerm;56829;52.274;4.770;2023-01-26T00:43:06;38.66;35.85;47.14;;
66450;Laerm;56829;52.274;4.770;2023-01-26T00:43:16;39.59;36.26;57.45;;
66450;Laerm;56829;52.274;4.770;2023-01-26T00:43:26;49.62;38.71;59.04;;
66450;Laerm;56829;52.274;4.770;2023-01-26T00:43:36;56.17;42.90;66.02;;
66450;Laerm;56829;52.274;4.770;2023-01-26T00:43:46;41.90;39.26;46.48;;
66450;Laerm;56829;52.274;4.770;2023-01-26T00:43:56;40.20;37.45;49.35;;
66450;Laerm;56829;52.274;4.770;2023-01-26T00:44:07;39.43;37.03;45.38;;
66450;Laerm;56829;52.274;4.770;2023-01-26T00:44:17;39.59;37.20;45.51;;
66450;Laerm;56829;52.274;4.770;2023-01-26T00:44:27;38.84;36.32;46.65;;
66450;Laerm;56829;52.274;4.770;2023-01-26T00:44:38;39.49;37.27;44.20;;
66450;Laerm;56829;52.274;4.770;2023-01-26T00:44:48;39.30;36.33;44.55;;
66450;Laerm;56829;52.274;4.770;2023-01-26T00:44:59;39.89;37.01;57.12;;
66450;Laerm;56829;52.274;4.770;2023-01-26T00:45:09;39.22;36.21;41.95;;
66450;Laerm;56829;52.274;4.770;2023-01-26T00:45:20;39.30;36.92;46.68;;
66450;Laerm;56829;52.274;4.770;2023-01-26T00:45:30;39.19;37.18;45.32;;
66450;Laerm;56829;52.274;4.770;2023-01-26T00:45:42;39.04;36.53;43.21;;
66450;Laerm;56829;52.274;4.770;2023-01-26T00:45:52;39.54;37.32;43.69;;
66450;Laerm;56829;52.274;4.770;2023-01-26T00:46:03;39.49;37.30;45.66;;
66450;Laerm;56829;52.274;4.770;2023-01-26T00:46:13;39.54;36.72;45.67;;
66450;Laerm;56829;52.274;4.770;2023-01-26T00:46:23;39.42;36.09;55.17;;
66450;Laerm;56829;52.274;4.770;2023-01-26T00:46:33;39.17;36.39;45.57;;
66450;Laerm;56829;52.274;4.770;2023-01-26T00:46:44;39.42;37.29;48.06;;
66450;Laerm;56829;52.274;4.770;2023-01-26T00:46:54;39.99;37.11;49.69;;
66450;Laerm;56829;52.274;4.770;2023-01-26T00:47:04;39.95;36.93;46.53;;
66450;Laerm;56829;52.274;4.770;2023-01-26T00:47:15;40.88;37.50;49.71;;
66450;Laerm;56829;52.274;4.770;2023-01-26T00:47:25;40.02;36.22;47.73;;
66450;Laerm;56829;52.274;4.770;2023-01-26T00:47:36;41.70;37.92;46.51;;
66450;Laerm;56829;52.274;4.770;2023-01-26T00:47:46;39.83;35.93;44.12;;
66450;Laerm;56829;52.274;4.770;2023-01-26T00:47:56;38.99;36.44;44.68;;
66450;Laerm;56829;52.274;4.770;2023-01-26T00:48:06;38.50;35.63;47.76;;
66450;Laerm;56829;52.274;4.770;2023-01-26T00:48:16;38.61;36.21;42.56;;
66450;Laerm;56829;52.274;4.770;2023-01-26T00:48:27;38.69;36.27;46.53;;
66450;Laerm;56829;52.274;4.770;2023-01-26T00:48:37;39.99;37.04;50.96;;
66450;Laerm;56829;52.274;4.770;2023-01-26T00:48:47;39.54;37.01;48.45;;
66450;Laerm;56829;52.274;4.770;2023-01-26T00:48:57;39.34;37.08;47.91;;
66450;Laerm;56829;52.274;4.770;2023-01-26T00:49:09;39.03;36.42;46.42;;
66450;Laerm;56829;52.274;4.770;2023-01-26T00:49:20;39.97;37.15;43.23;;
66450;Laerm;56829;52.274;4.770;2023-01-26T00:49:30;39.45;37.34;45.87;;
66450;Laerm;56829;52.274;4.770;2023-01-26T00:49:40;40.69;37.88;51.80;;
66450;Laerm;56829;52.274;4.770;2023-01-26T00:49:50;39.69;37.26;48.69;;
66450;Laerm;56829;52.274;4.770;2023-01-26T00:50:00;40.27;37.79;44.17;;
66450;Laerm;56829;52.274;4.770;2023-01-26T00:50:11;40.17;38.27;44.49;;
66450;Laerm;56829;52.274;4.770;2023-01-26T00:50:21;39.85;37.90;45.35;;
66450;Laerm;56829;52.274;4.770;2023-01-26T00:50:31;39.62;36.22;42.16;;
66450;Laerm;56829;52.274;4.770;2023-01-26T00:50:42;39.03;35.79;46.70;;
66450;Laerm;56829;52.274;4.770;2023-01-26T00:50:52;39.16;36.01;44.76;;
66450;Laerm;56829;52.274;4.770;2023-01-26T00:51:02;39.78;36.05;49.89;;
66450;Laerm;56829;52.274;4.770;2023-01-26T00:51:13;38.77;36.08;41.74;;
66450;Laerm;56829;52.274;4.770;2023-01-26T00:51:23;38.89;36.40;42.18;;
66450;Laerm;56829;52.274;4.770;2023-01-26T00:51:33;39.14;36.90;44.69;;
66450;Laerm;56829;52.274;4.770;2023-01-26T00:51:43;39.76;36.43;56.41;;
66450;Laerm;56829;52.274;4.770;2023-01-26T00:51:53;39.10;36.46;41.71;;
66450;Laerm;56829;52.274;4.770;2023-01-26T00:52:04;38.66;35.83;43.75;;
66450;Laerm;56829;52.274;4.770;2023-01-26T00:52:15;38.56;36.34;44.63;;
66450;Laerm;56829;52.274;4.770;2023-01-26T00:52:25;38.28;35.80;43.99;;
66450;Laerm;56829;52.274;4.770;2023-01-26T00:52:35;38.90;35.94;42.44;;
66450;Laerm;56829;52.274;4.770;2023-01-26T00:52:45;41.44;36.76;47.02;;
66450;Laerm;56829;52.274;4.770;2023-01-26T00:52:55;38.88;36.34;43.06;;
66450;Laerm;56829;52.274;4.770;2023-01-26T00:53:06;41.55;37.27;60.68;;
66450;Laerm;56829;52.274;4.770;2023-01-26T00:53:16;38.94;36.30;45.55;;
66450;Laerm;56829;52.274;4.770;2023-01-26T00:53:26;39.67;36.28;45.24;;
66450;Laerm;56829;52.274;4.770;2023-01-26T00:53:36;38.24;34.87;42.17;;
66450;Laerm;56829;52.274;4.770;2023-01-26T00:53:46;37.80;35.47;45.25;;
66450;Laerm;56829;52.274;4.770;2023-01-26T00:53:57;39.11;35.93;44.92;;
66450;Laerm;56829;52.274;4.770;2023-01-26T00:54:07;38.71;36.59;46.28;;
66450;Laerm;56829;52.274;4.770;2023-01-26T00:54:17;38.66;36.12;44.05;;
66450;Laerm;56829;52.274;4.770;2023-01-26T00:54:27;39.74;37.14;46.23;;
66450;Laerm;56829;52.274;4.770;2023-01-26T00:54:38;39.70;37.30;47.06;;
66450;Laerm;56829;52.274;4.770;2023-01-26T00:54:48;39.47;36.45;46.30;;
66450;Laerm;56829;52.274;4.770;2023-01-26T00:54:58;39.45;35.92;44.86;;
66450;Laerm;56829;52.274;4.770;2023-01-26T00:55:09;40.15;36.58;44.58;;
66450;Laerm;56829;52.274;4.770;2023-01-26T00:55:19;41.23;37.40;45.09;;
66450;Laerm;56829;52.274;4.770;2023-01-26T00:55:29;40.43;37.08;47.66;;
66450;Laerm;56829;52.274;4.770;2023-01-26T00:55:42;41.35;37.53;47.08;;
66450;Laerm;56829;52.274;4.770;2023-01-26T00:55:52;40.13;37.11;44.59;;
66450;Laerm;56829;52.274;4.770;2023-01-26T00:56:05;38.97;35.96;43.54;;
66450;Laerm;56829;52.274;4.770;2023-01-26T00:56:15;39.36;36.37;53.18;;
66450;Laerm;56829;52.274;4.770;2023-01-26T00:56:25;38.25;35.80;47.89;;
66450;Laerm;56829;52.274;4.770;2023-01-26T00:56:36;38.95;36.07;41.33;;
66450;Laerm;56829;52.274;4.770;2023-01-26T00:56:47;38.65;36.54;44.38;;
66450;Laerm;56829;52.274;4.770;2023-01-26T00:56:57;43.39;36.42;66.32;;
66450;Laerm;56829;52.274;4.770;2023-01-26T00:57:07;39.01;35.90;45.87;;
66450;Laerm;56829;52.274;4.770;2023-01-26T00:57:18;39.42;36.69;41.80;;
66450;Laerm;56829;52.274;4.770;2023-01-26T00:57:28;40.82;38.42;44.22;;
66450;Laerm;56829;52.274;4.770;2023-01-26T00:57:38;52.71;42.30;61.21;;
66450;Laerm;56829;52.274;4.770;2023-01-26T00:57:48;47.52;36.99;70.81;;
66450;Laerm;56829;52.274;4.770;2023-01-26T00:58:02;39.97;36.41;47.70;;
66450;Laerm;56829;52.274;4.770;2023-01-26T00:58:13;39.86;37.01;50.60;;
66450;Laerm;56829;52.274;4.770;2023-01-26T00:58:23;39.94;36.93;46.31;;
66450;Laerm;56829;52.274;4.770;2023-01-26T00:58:33;41.06;38.06;54.86;;
66450;Laerm;56829;52.274;4.770;2023-01-26T00:58:43;40.81;38.08;49.02;;
66450;Laerm;56829;52.274;4.770;2023-01-26T00:58:54;41.48;38.46;47.26;;
66450;Laerm;56829;52.274;4.770;2023-01-26T00:59:04;45.55;41.18;50.50;;
66450;Laerm;56829;52.274;4.770;2023-01-26T00:59:15;42.90;39.53;46.31;;
66450;Laerm;56829;52.274;4.770;2023-01-26T00:59:25;45.16;39.74;50.84;;
66450;Laerm;56829;52.274;4.770;2023-01-26T00:59:35;43.50;40.59;48.64;;
66450;Laerm;56829;52.274;4.770;2023-01-26T00:59:45;44.00;41.21;47.31;;
66450;Laerm;56829;52.274;4.770;2023-01-26T00:59:56;46.54;43.62;50.32;;
66450;Laerm;56829;52.274;4.770;2023-01-26T01:00:06;44.90;42.21;46.92;;
66450;Laerm;56829;52.274;4.770;2023-01-26T01:00:17;45.39;41.78;50.41;;